Angus, New Mexico
Current Conditions -  °F | °C
As of 1:15 PM on Friday 31 Oct 2014 (Local Time) from KSRR Reporting Station
Clear Clear  
Wind Chill: 13°   Ceiling: Unl
Heat Index: 13°   Visibility: 10mi
Dew Point:   Wind: 15mph
Humidity: 41%   Direction: 150°SSE
Pressure: 30.42"   Gusts: 24mph
Location:  33.7233°N, 105.25°W
Report Text: KSRR 311915Z AUTO 15013G21KT 10SM CLR 13/00 A3042 RMK AO2
Loading
Personal Weather Stations






























Interactive Weather Map
Tropical Storm Tracking
New forecast layout! Learn more

10-Day Weather Forecast

Advertisements
Track Severe Weather on mobile